Latest Weather Observations for Goulburn Airport

IDN60801

Issued at 8:35 pm EDT Sunday 23 November 2014 (issued every 30 minutes, with the page automatically refreshed every 10 minutes)

About weather observations | Map of weather stations | Latest weather observations for NSW | Other Formats
Station Details ID: 070330 Name: GOULBURN AIRPORT AWS Lat: -34.81 Lon: 149.73 Height: 640.0 m
Data from the previous 72 hours. | See also: Recent months at Goulburn Airport
Date/Time
EDT
Temp
°C
App
Temp
°C
Dew
Point
Rel
Hum
%
Delta-T
°C
Wind Press
QNH
hPa
Press
MSL
hPa
Rain
since 9 am
mm
Dir
 
Spd
km/h
Gust
km/h
Spd
kts
Gust
kts
23/08:30pm 24.4 21.6 12.7 48 6.9 NE 19 22 10 12 1013.4 1011.7 0.6
23/08:29pm 24.1 21.7 12.7 49 6.7 NE 17 20 9 11 1013.6 1011.9 0.6
23/08:00pm 25.3 21.5 12.5 45 7.6 NNW 24 39 13 21 1015.6 1014.0 0.6
23/07:30pm 24.6 19.0 13.2 49 6.8 NW 35 48 19 26 1015.3 1013.6 0.6
23/07:16pm 24.0 19.8 13.5 52 6.3 WNW 28 43 15 23 1015.5 1013.9 0.6
23/07:00pm 23.3 21.6 14.6 58 5.3 W 17 24 9 13 1015.2 1013.5 0.6
23/06:30pm 23.6 23.5 13.8 54 5.9 NNW 7 15 4 8 1013.8 1012.1 0.4
23/06:00pm 25.3 19.7 11.5 42 8.1 NNW 32 56 17 30 1012.4 1010.7 0.2
23/05:43pm 29.6 23.3 7.5 25 12.3 WNW 30 48 16 26 1012.3 1010.6 0.0
23/05:42pm 27.7 20.6 9.5 32 10.4 WNW 37 48 20 26 1012.5 1010.8 0.0
23/05:37pm 30.9 17.0 6.7 22 13.4 NW 69 93 37 50 1011.3 1009.7 0.0
23/05:30pm 32.4 23.3 5.8 19 14.6 WNW 43 61 23 33 1011.2 1009.6 0.0
23/05:28pm 31.9 24.0 6.2 20 14.2 WNW 37 61 20 33 1011.3 1009.7 0.0
23/05:00pm 33.1 25.1 3.9 16 15.6 NNW 35 50 19 27 1010.9 1009.2 0.0
23/04:50pm 33.3 26.5 3.2 15 15.9 N 28 54 15 29 1010.6 1008.9 0.0
23/04:46pm 33.4 26.6 3.3 15 16.0 NNW 28 44 15 24 1010.7 1009.0 0.0
23/04:30pm 32.0 29.3 8.9 24 13.3 S 13 24 7 13 1011.0 1009.3 0.0
23/04:23pm 31.4 24.9 6.5 21 13.8 NNW 30 43 16 23 1011.3 1009.7 0.0
23/04:19pm 33.4 18.8 3.3 15 16.0 WNW 69 91 37 49 1010.8 1009.1 0.0
23/04:17pm 34.5 25.6 3.1 14 16.7 WSW 39 70 21 38 1011.0 1009.3 0.0
23/04:02pm 35.2 28.7 4.7 15 16.7 NNW 28 46 15 25 1010.6 1008.9 0.0
23/04:00pm 35.5 27.9 2.9 13 17.4 NNW 32 46 17 25 1010.6 1008.9 0.0
23/03:42pm 36.6 29.9 3.7 13 17.9 WNW 28 46 15 25 1010.9 1009.2 0.0
23/03:30pm 38.1 29.3 3.8 12 18.8 WNW 39 54 21 29 1011.0 1009.3 0.0
23/03:24pm 37.8 29.2 4.7 13 18.4 WNW 39 46 21 25 1011.1 1009.4 0.0
23/03:09pm 37.4 29.1 4.4 13 18.2 NNW 37 56 20 30 1011.1 1009.4 0.0
23/03:06pm 37.7 28.9 3.4 12 18.7 NW 39 52 21 28 1011.1 1009.4 0.0
23/03:00pm 37.9 30.0 2.4 11 19.1 WNW 33 56 18 30 1011.3 1009.7 0.0
23/02:42pm 38.3 29.0 2.7 11 19.2 WNW 41 63 22 34 1011.4 1009.8 0.0
23/02:30pm 37.7 29.1 4.6 13 18.3 WNW 39 56 21 30 1011.8 1010.1 0.0
23/02:06pm 36.9 29.3 6.0 15 17.4 WNW 35 54 19 29 1012.1 1010.4 0.0
23/02:00pm 37.8 29.0 5.7 14 18.1 W 41 57 22 31 1012.1 1010.4 0.0
23/01:33pm 37.0 29.5 6.1 15 17.5 NW 35 54 19 29 1012.5 1010.8 0.0
23/01:30pm 36.2 27.6 4.5 14 17.4 NW 39 54 21 29 1012.5 1010.8 0.0
23/01:00pm 36.8 28.7 6.9 16 17.1 WNW 39 59 21 32 1013.0 1011.4 0.0
23/12:30pm 36.1 26.9 5.4 15 17.1 NW 43 67 23 36 1013.0 1011.4 0.0
23/12:12pm 36.3 27.9 5.5 15 17.2 WNW 39 57 21 31 1013.1 1011.5 0.0
23/12:00pm 36.2 27.4 5.5 15 17.1 WNW 41 56 22 30 1013.1 1011.5 0.0
23/11:52am 35.9 27.2 6.2 16 16.7 WNW 41 50 22 27 1013.3 1011.6 0.0
23/11:30am 35.7 27.6 6.9 17 16.4 NW 39 56 21 30 1013.4 1011.7 0.0
23/11:04am 35.2 28.7 6.5 17 16.2 NNW 30 48 16 26 1013.5 1011.8 0.0
23/11:00am 35.1 29.5 7.2 18 15.9 NNW 26 41 14 22 1013.5 1011.8 0.0
23/10:30am 33.2 30.0 8.6 22 14.2 N 15 24 8 13 1013.7 1012.0 0.0
23/10:00am 31.5 29.7 10.8 28 12.3 N 11 17 6 9 1014.0 1012.4 0.0
23/09:30am 28.7 28.0 9.9 31 10.8 NE 4 7 2 4 1014.4 1012.8 0.0
23/09:00am 25.9 25.5 9.7 36 9.2 E 2 6 1 3 1014.7 1013.1 0.0
23/08:30am 22.8 22.7 9.6 43 7.4 CALM 0 0 0 0 1014.6 1013.0 0.0
23/08:00am 20.3 20.5 10.7 54 5.4 CALM 0 0 0 0 1014.7 1013.1 0.0
23/07:30am 17.1 17.3 10.5 65 3.6 CALM 0 0 0 0 1014.4 1012.8 0.0
23/07:00am 14.5 14.3 11.8 84 1.5 WSW 4 9 2 5 1014.3 1012.7 0.0
23/06:30am 11.8 11.1 10.2 90 0.8 SSW 4 11 2 6 1014.1 1012.5 0.0
23/06:00am 11.4 11.4 9.7 89 0.9 CALM 0 0 0 0 1014.0 1012.4 0.0
23/05:30am 11.8 11.8 9.7 87 1.1 CALM 0 0 0 0 1013.9 1012.2 0.0
23/05:00am 12.2 11.5 10.1 87 1.1 S 4 7 2 4 1013.7 1012.0 0.0
23/04:30am 12.7 12.5 10.6 87 1.1 WSW 2 6 1 3 1013.8 1012.1 0.0
23/04:00am 12.4 12.5 10.0 85 1.3 CALM 0 0 0 0 1013.5 1011.8 0.0
23/03:30am 12.6 12.7 10.1 85 1.3 CALM 0 0 0 0 1013.4 1011.7 0.0
23/03:00am 12.1 11.0 10.0 87 1.1 ESE 6 9 3 5 1013.5 1011.8 0.0
23/02:30am 11.9 11.8 9.6 86 1.2 CALM 0 0 0 0 1014.0 1012.4 0.0
23/02:00am 12.8 11.8 10.3 85 1.3 SW 6 9 3 5 1013.9 1012.2 0.0
23/01:30am 12.6 12.7 10.1 85 1.3 CALM 0 0 0 0 1014.1 1012.5 0.0
23/01:00am 11.9 11.8 9.6 86 1.2 CALM 0 6 0 3 1014.3 1012.7 0.0
23/12:30am 12.7 12.7 9.9 83 1.5 CALM 0 0 0 0 1014.7 1013.1 0.0
23/12:00am 13.5 13.6 10.3 81 1.7 ESE 0 0 0 0 1015.1 1013.4 0.0
 
Date/Time
EDT
Temp
°C
App
Temp
°C
Dew
Point
Rel
Hum
%
Delta-T
°C
Wind Press
QNH
hPa
Press
MSL
hPa
Rain
since 9 am
mm
Dir
 
Spd
km/h
Gust
km/h
Spd
kts
Gust
kts
22/11:30pm 13.5 13.1 9.9 79 1.9 E 2 9 1 5 1015.0 1013.3 0.0
22/11:00pm 14.7 14.8 10.1 74 2.5 CALM 0 0 0 0 1015.3 1013.6 0.0
22/10:30pm 15.5 15.6 10.3 71 2.8 CALM 0 0 0 0 1015.1 1013.4 0.0
22/10:00pm 15.8 16.0 10.6 71 2.8 CALM 0 0 0 0 1015.1 1013.4 0.0
22/09:30pm 16.5 16.5 9.9 65 3.6 CALM 0 0 0 0 1015.1 1013.4 0.0
22/09:00pm 18.7 18.8 10.3 58 4.6 CALM 0 0 0 0 1014.7 1013.1 0.0
22/08:30pm 19.9 18.9 10.3 54 5.3 SSW 6 7 3 4 1014.3 1012.7 0.0
22/08:00pm 22.2 19.9 9.0 43 7.3 WSW 11 13 6 7 1014.0 1012.4 0.0
22/07:30pm 25.5 23.2 8.9 35 9.3 SW 11 13 6 7 1013.6 1011.9 0.0
22/07:00pm 28.1 25.4 8.9 30 10.9 WSW 13 15 7 8 1013.1 1011.5 0.0
22/06:30pm 28.5 23.9 6.6 25 12.0 W 20 26 11 14 1012.8 1011.2 0.0
22/06:00pm 29.2 22.4 5.3 22 12.8 W 30 39 16 21 1012.7 1011.1 0.0
22/05:30pm 29.8 23.4 5.1 21 13.2 W 28 37 15 20 1012.4 1010.7 0.0
22/05:00pm 31.3 24.8 6.4 21 13.8 W 30 39 16 21 1012.3 1010.6 0.0
22/04:30pm 32.1 27.2 8.4 23 13.6 W 24 39 13 21 1012.3 1010.6 0.0
22/04:00pm 31.1 25.6 7.5 23 13.3 W 26 35 14 19 1012.4 1010.7 0.0
22/03:37pm 30.5 24.5 7.0 23 13.0 WNW 28 46 15 25 1012.5 1010.8 0.0
22/03:30pm 31.2 25.3 7.6 23 13.3 NW 28 39 15 21 1012.5 1010.8 0.0
22/03:12pm 31.7 24.7 6.7 21 13.9 WNW 33 54 18 29 1012.5 1010.8 0.0
22/03:00pm 31.6 25.9 6.6 21 13.9 W 26 44 14 24 1012.6 1011.0 0.0
22/02:30pm 30.6 25.7 8.3 25 12.6 W 24 41 13 22 1013.0 1011.4 0.0
22/02:15pm 30.5 24.8 8.3 25 12.6 WNW 28 46 15 25 1013.4 1011.7 0.0
22/02:00pm 30.0 25.6 7.2 24 12.7 WNW 20 35 11 19 1013.4 1011.7 0.0
22/01:30pm 29.8 25.1 7.7 25 12.4 WNW 22 32 12 17 1013.5 1011.8 0.0
22/01:00pm 29.1 23.5 5.2 22 12.8 NW 24 35 13 19 1013.9 1012.2 0.0
22/12:30pm 29.3 24.9 7.2 25 12.2 NW 20 32 11 17 1014.1 1012.5 0.0
22/12:00pm 27.2 26.0 11.7 38 9.1 E 9 11 5 6 1014.7 1013.1 0.0
22/11:30am 25.7 23.9 12.2 43 8.0 NNW 13 19 7 10 1015.2 1013.5 0.0
22/11:00am 24.2 23.0 12.8 49 6.8 N 11 19 6 10 1015.5 1013.9 0.0
22/10:30am 22.7 21.3 13.5 56 5.5 NE 13 19 7 10 1015.8 1014.2 0.0
22/10:00am 21.8 20.5 13.7 60 4.8 NNE 13 20 7 11 1016.0 1014.4 0.0
22/09:30am 20.4 17.9 13.6 65 4.0 NE 19 24 10 13 1016.3 1014.7 0.0
22/09:15am 20.0 17.4 13.7 67 3.7 NE 20 26 11 14 1016.3 1014.7 0.0
22/09:00am 19.3 16.9 13.7 70 3.3 NE 19 24 10 13 1016.3 1014.7 0.0
22/08:30am 18.1 15.4 13.4 74 2.7 NE 20 28 11 15 1016.1 1014.5 0.0
22/08:00am 17.3 14.6 13.6 79 2.2 ENE 20 26 11 14 1016.0 1014.4 0.0
22/07:30am 16.9 15.6 13.6 81 1.9 NE 13 20 7 11 1016.2 1014.6 0.0
22/07:00am 16.4 15.0 13.3 82 1.8 ENE 13 17 7 9 1016.1 1014.5 0.0
22/06:30am 16.2 15.2 13.5 84 1.6 ENE 11 17 6 9 1015.7 1014.1 0.0
22/06:00am 16.1 15.5 13.6 85 1.4 ENE 9 13 5 7 1015.7 1014.1 0.0
22/05:30am 16.0 15.0 13.5 85 1.4 ENE 11 13 6 7 1015.6 1014.0 0.0
22/05:00am 15.9 15.3 13.6 86 1.3 ENE 9 15 5 8 1015.3 1013.6 0.0
22/04:30am 15.8 14.9 13.6 87 1.3 ENE 11 17 6 9 1015.2 1013.5 0.0
22/04:00am 15.7 15.1 13.5 87 1.3 ENE 9 13 5 7 1015.1 1013.4 0.0
22/03:30am 15.6 14.6 13.4 87 1.3 ENE 11 15 6 8 1015.0 1013.3 0.0
22/03:00am 15.6 14.2 13.3 86 1.3 ENE 13 17 7 9 1014.9 1013.2 0.0
22/02:30am 15.7 13.9 13.2 85 1.4 ENE 15 22 8 12 1015.1 1013.4 0.0
22/02:00am 15.7 14.3 13.4 86 1.3 ENE 13 17 7 9 1015.5 1013.9 0.0
22/01:30am 15.9 13.7 13.4 85 1.4 ENE 17 22 9 12 1015.7 1014.1 0.0
22/01:00am 16.2 14.5 13.5 84 1.6 ENE 15 17 8 9 1015.9 1014.3 0.0
22/12:30am 16.3 15.0 13.6 84 1.6 E 13 17 7 9 1016.1 1014.5 0.0
22/12:00am 16.1 14.5 13.9 87 1.3 E 15 19 8 10 1016.2 1014.6 0.0
 
Date/Time
EDT
Temp
°C
App
Temp
°C
Dew
Point
Rel
Hum
%
Delta-T
°C
Wind Press
QNH
hPa
Press
MSL
hPa
Rain
since 9 am
mm
Dir
 
Spd
km/h
Gust
km/h
Spd
kts
Gust
kts
21/11:30pm 16.0 14.5 14.2 89 1.1 ESE 15 20 8 11 1016.2 1014.6 0.0
21/11:00pm 15.3 14.4 13.7 90 0.9 ESE 11 13 6 7 1016.1 1014.5 0.0
21/10:43pm 15.3 14.8 13.7 90 0.9 ESE 9 11 5 6 1015.9 1014.3 0.0
21/10:30pm 15.3 14.6 13.3 88 1.1 ESE 9 13 5 7 1015.8 1014.2 0.0
21/10:00pm 16.3 15.0 13.8 85 1.5 E 13 19 7 10 1015.5 1013.9 0.0
21/09:30pm 17.3 14.8 14.2 82 1.8 E 20 28 11 15 1014.9 1013.2 0.0
21/09:00pm 17.7 16.4 9.8 60 4.3 S 7 15 4 8 1013.9 1012.2 0.0
21/08:30pm 19.6 17.7 9.2 51 5.7 W 9 11 5 6 1013.3 1011.6 0.0
21/08:00pm 21.9 19.2 9.1 44 7.0 W 13 17 7 9 1012.8 1011.2 0.0
21/07:30pm 24.6 22.0 9.3 38 8.6 W 13 17 7 9 1012.4 1010.7 0.0
21/07:00pm 26.6 23.4 9.9 35 9.6 WNW 17 24 9 13 1011.9 1010.2 0.0
21/06:30pm 26.9 22.8 8.8 32 10.2 W 20 28 11 15 1011.3 1009.7 0.0
21/06:00pm 27.4 21.7 8.3 30 10.7 W 28 35 15 19 1010.9 1009.2 0.0
21/05:30pm 27.6 21.8 9.4 32 10.4 W 30 41 16 22 1010.7 1009.0 0.0
21/05:00pm 28.2 22.8 9.5 31 10.7 W 28 41 15 22 1010.6 1008.9 0.0
21/04:30pm 28.3 22.5 9.6 31 10.7 WNW 30 43 16 23 1010.4 1008.7 0.0
21/04:00pm 28.7 22.5 9.4 30 11.1 W 32 44 17 24 1010.4 1008.7 0.0
21/03:30pm 28.6 22.9 9.8 31 10.8 W 30 43 16 23 1010.5 1008.8 0.0
21/03:13pm 29.1 22.8 9.8 30 11.1 W 33 56 18 30 1010.4 1008.7 0.0
21/03:00pm 28.7 22.1 9.9 31 10.9 W 35 48 19 26 1010.6 1008.9 0.0
21/02:30pm 27.4 20.9 8.3 30 10.7 W 32 39 17 21 1010.6 1008.9 0.0
21/02:16pm 28.0 22.4 8.8 30 10.8 WNW 28 37 15 20 1010.5 1008.8 0.0
21/02:12pm 29.2 21.9 10.3 31 11.0 W 39 44 21 24 1010.5 1008.8 0.0
21/02:06pm 28.8 22.7 10.5 32 10.7 WNW 33 57 18 31 1010.6 1008.9 0.0
21/02:00pm 27.7 21.3 9.5 32 10.4 WNW 33 50 18 27 1010.6 1008.9 0.0
21/01:48pm 28.6 21.9 9.8 31 10.8 WNW 35 54 19 29 1010.4 1008.7 0.0
21/01:30pm 28.2 21.7 10.4 33 10.3 W 35 46 19 25 1010.5 1008.8 0.0
21/01:00pm 28.3 22.5 10.9 34 10.2 WNW 32 44 17 24 1010.7 1009.0 0.0
21/12:41pm 27.7 21.2 10.4 34 10.0 W 35 54 19 29 1010.8 1009.1 0.0
21/12:30pm 27.3 20.7 10.1 34 9.9 W 35 48 19 26 1010.9 1009.2 0.0
21/12:00pm 27.5 20.0 9.3 32 10.4 WNW 39 52 21 28 1011.1 1009.4 0.0
21/11:50am 27.1 19.5 9.0 32 10.2 NW 39 46 21 25 1010.8 1009.1 0.0
21/11:30am 26.6 20.2 9.5 34 9.7 W 33 43 18 23 1011.0 1009.3 0.0
21/11:01am 26.7 20.2 9.1 33 9.9 W 33 56 18 30 1010.9 1009.2 0.0
21/11:00am 26.3 19.6 8.3 32 10.0 W 33 48 18 26 1010.9 1009.2 0.0
21/10:30am 26.3 19.1 7.8 31 10.2 W 35 52 19 28 1010.6 1008.9 0.0
21/10:00am 26.1 19.9 7.7 31 10.1 WNW 30 50 16 27 1010.2 1008.5 0.0
21/09:52am 25.8 19.2 7.9 32 9.8 W 32 50 17 27 1010.3 1008.6 0.0
21/09:30am 26.1 19.4 8.1 32 10.0 W 33 44 18 24 1010.4 1008.7 0.0
21/09:00am 25.5 18.9 6.2 29 10.3 W 30 41 16 22 1010.2 1008.5 0.0
21/08:30am 24.2 19.6 6.5 32 9.4 WNW 20 26 11 14 1010.1 1008.4 0.0
21/08:00am 22.7 19.9 6.9 36 8.4 NNW 11 15 6 8 1009.6 1007.9 0.0
21/07:30am 20.9 18.9 6.4 39 7.6 WNW 6 17 3 9 1009.6 1007.9 0.0
21/07:00am 17.5 17.0 9.4 59 4.4 E 2 7 1 4 1009.7 1008.0 0.0
21/06:30am 14.4 12.0 7.2 62 3.7 W 9 13 5 7 1009.5 1007.8 0.0
21/06:00am 16.3 13.2 5.6 49 5.3 NNW 11 15 6 8 1009.3 1007.6 0.0
21/05:30am 17.2 14.0 7.0 51 5.3 NNW 13 17 7 9 1009.2 1007.5 0.0
21/05:00am 16.1 13.7 6.8 54 4.7 N 9 13 5 7 1008.7 1007.0 0.0
21/04:30am 16.0 15.0 7.5 57 4.4 NW 2 9 1 5 1008.6 1006.9 0.0
21/04:00am 17.7 15.0 7.2 50 5.5 N 11 13 6 7 1008.6 1006.9 0.0
21/03:30am 18.7 17.0 7.5 48 5.9 N 6 13 3 7 1008.8 1007.1 0.0
21/03:00am 17.7 17.0 8.6 55 4.9 NNW 2 7 1 4 1008.9 1007.2 0.0
21/02:30am 18.0 15.5 8.3 53 5.1 NNW 11 13 6 7 1009.2 1007.5 0.0
21/02:00am 16.8 15.3 9.0 60 4.2 NW 7 19 4 10 1009.5 1007.8 0.0
21/01:30am 17.0 16.8 8.9 59 4.3 CALM 0 0 0 0 1009.3 1007.6 0.0
21/01:00am 18.1 16.3 8.1 52 5.3 N 7 9 4 5 1009.4 1007.7 0.0
21/12:30am 17.8 17.3 9.4 58 4.5 NE 2 7 1 4 1009.7 1008.0 0.0
21/12:00am 18.3 15.4 8.0 51 5.5 WNW 13 17 7 9 1010.2 1008.5 0.0
 
Date/Time
EDT
Temp
°C
App
Temp
°C
Dew
Point
Rel
Hum
%
Delta-T
°C
Wind Press
QNH
hPa
Press
MSL
hPa
Rain
since 9 am
mm
Dir
 
Spd
km/h
Gust
km/h
Spd
kts
Gust
kts
20/11:30pm 17.4 15.7 7.7 53 5.1 N 6 9 3 5 1010.0 1008.3 0.0
20/11:00pm 18.0 16.1 6.8 48 5.8 NNW 6 7 3 4 1010.4 1008.7 0.0
20/10:30pm 18.5 16.0 6.7 46 6.1 NNW 9 11 5 6 1010.7 1009.0 0.0
20/10:00pm 18.3 16.2 6.5 46 6.1 N 7 9 4 5 1011.0 1009.3 0.0
20/09:30pm 19.4 17.0 6.8 44 6.6 N 9 9 5 5 1011.0 1009.3 0.0
20/09:00pm 20.3 18.2 6.6 41 7.1 N 7 9 4 5 1010.9 1009.2 0.0

Other Formats:

Comma delimited format used in spreadsheet applications
http://www.bom.gov.au/fwo/IDN60801/IDN60801.95716.axf

JavaScript Object Notation format (JSON) in row-major order
http://www.bom.gov.au/fwo/IDN60801/IDN60801.95716.json